Time;durP1;ratioP1;P1;durP2;ratioP2;P2;SDS_P1;SDS_P2;PMS_P1;PMS_P2;Temp;Humidity;BMP_temperature;BMP_pressure;BME280_temperature;BME280_humidity;BME280_pressure;Samples;Min_cycle;Max_cycle;Signal;HPM_P1;HPM_P2
2022/07/26 00:01:33;;;;;;;;;;;;;;;24.01;48.99;97748.97;5036698;28;20255;-63
2022/07/26 00:04:03;;;;;;;;;;;;;;;24.33;48.57;97741.66;5042775;28;20051;-63
2022/07/26 00:06:31;;;;;;;;;;;;;;;24.49;47.98;97745.53;5039469;28;20341;-64
2022/07/26 00:09:01;;;;;;;;;;;;;;;24.11;48.92;97746.53;5046417;28;20011;-63
2022/07/26 00:11:32;;;;;;;;;;;;;;;23.93;49.28;97733.56;5035209;28;20009;-63
2022/07/26 00:14:03;;;;;;;;;;;;;;;23.77;49.73;97733.25;5048030;28;20019;-63
2022/07/26 00:19:27;;;;;;;;;;;;;;;23.80;50.00;97726.88;5033912;28;19971;-65
2022/07/26 00:24:39;;;;;;;;;;;;;;;24.03;48.86;97727.16;5036508;28;19929;-63
2022/07/26 00:27:09;;;;;;;;;;;;;;;24.03;48.79;97735.50;5035409;28;20285;-63
2022/07/26 00:29:37;;;;;;;;;;;;;;;24.07;48.94;97734.66;5037376;28;20012;-65
2022/07/26 00:32:07;;;;;;;;;;;;;;;24.09;48.68;97737.84;5051827;28;19920;-63
2022/07/26 00:34:36;;;;;;;;;;;;;;;23.75;49.42;97738.38;5067947;28;19921;-63
2022/07/26 00:37:29;;;;;;;;;;;;;;;24.16;48.29;97749.69;5044681;28;20318;-64
2022/07/26 00:39:57;;;;;;;;;;;;;;;24.17;48.02;97742.94;5043147;28;19925;-63
2022/07/26 00:42:25;;;;;;;;;;;;;;;23.74;48.90;97745.91;5063370;28;19921;-64
2022/07/26 00:44:53;;;;;;;;;;;;;;;23.77;48.92;97741.56;5069059;28;19928;-63
2022/07/26 00:47:22;;;;;;;;;;;;;;;23.69;49.07;97748.31;5039892;28;19974;-64
2022/07/26 00:49:50;;;;;;;;;;;;;;;23.98;48.25;97749.78;5031146;28;19946;-64
2022/07/26 00:52:18;;;;;;;;;;;;;;;23.83;48.70;97748.28;5050836;28;20015;-63
2022/07/26 00:57:37;;;;;;;;;;;;;;;23.95;47.84;97749.78;5047323;28;20800;-64
2022/07/26 01:00:07;;;;;;;;;;;;;;;23.92;48.17;97745.84;5050769;28;19960;-66
2022/07/26 01:02:39;;;;;;;;;;;;;;;23.59;48.87;97757.44;5081677;28;19952;-64
2022/07/26 01:05:07;;;;;;;;;;;;;;;23.69;48.92;97748.31;5078341;28;19932;-63
2022/07/26 01:07:36;;;;;;;;;;;;;;;23.56;48.85;97749.94;5062177;28;19921;-64
2022/07/26 01:10:07;;;;;;;;;;;;;;;23.35;49.55;97740.47;5078137;28;19928;-64
2022/07/26 01:12:35;;;;;;;;;;;;;;;23.33;49.55;97737.34;5075777;28;20039;-64
2022/07/26 01:15:03;;;;;;;;;;;;;;;23.49;49.12;97747.97;5078605;28;20280;-66
2022/07/26 01:17:33;;;;;;;;;;;;;;;23.58;48.86;97745.56;5076069;28;19967;-63
2022/07/26 01:20:05;;;;;;;;;;;;;;;23.38;49.60;97745.22;5059858;28;19975;-63
2022/07/26 01:23:00;;;;;;;;;;;;;;;23.45;48.72;97747.97;5078778;28;20303;-63
2022/07/26 01:25:31;;;;;;;;;;;;;;;23.45;48.53;97736.09;5082852;28;19921;-63
2022/07/26 01:28:27;;;;;;;;;;;;;;;23.68;47.70;97744.75;5078760;28;19926;-63
2022/07/26 01:30:56;;;;;;;;;;;;;;;23.35;48.71;97740.47;5069958;28;20357;-64
2022/07/26 01:33:29;;;;;;;;;;;;;;;23.54;48.66;97739.22;5088651;28;19928;-64
2022/07/26 01:36:00;;;;;;;;;;;;;;;23.63;48.44;97728.53;5079785;28;19920;-63
2022/07/26 01:38:30;;;;;;;;;;;;;;;23.61;48.41;97738.44;5079459;28;19920;-63
2022/07/26 01:40:58;;;;;;;;;;;;;;;23.49;48.95;97743.22;5065575;28;19920;-63
2022/07/26 01:43:26;;;;;;;;;;;;;;;23.64;48.26;97752.28;5076382;28;19924;-63
2022/07/26 01:45:55;;;;;;;;;;;;;;;23.34;49.26;97747.22;5059581;28;19921;-63
2022/07/26 01:48:23;;;;;;;;;;;;;;;23.55;48.87;97742.81;5085556;28;19921;-63
2022/07/26 01:50:51;;;;;;;;;;;;;;;23.25;49.35;97746.84;5075113;28;19966;-64
2022/07/26 01:53:19;;;;;;;;;;;;;;;23.40;49.14;97756.72;5089793;28;20343;-62
2022/07/26 01:55:48;;;;;;;;;;;;;;;23.35;49.28;97748.78;5075321;28;19970;-64
2022/07/26 01:58:16;;;;;;;;;;;;;;;23.28;49.50;97748.81;5086503;28;19924;-63
2022/07/26 02:00:44;;;;;;;;;;;;;;;23.39;49.71;97740.47;5077140;28;19920;-63
2022/07/26 02:03:12;;;;;;;;;;;;;;;23.39;49.47;97740.47;5058824;28;19921;-62
2022/07/26 02:05:40;;;;;;;;;;;;;;;23.43;49.67;97749.56;5084714;28;20361;-63
2022/07/26 02:08:08;;;;;;;;;;;;;;;23.41;49.65;97746.41;5087489;28;20065;-63
2022/07/26 02:18:41;;;;;;;;;;;;;;;23.20;49.80;97750.00;5077289;28;20015;-63
2022/07/26 02:22:00;;;;;;;;;;;;;;;23.12;50.32;97759.53;5075477;28;19965;-63
2022/07/26 02:24:28;;;;;;;;;;;;;;;22.94;51.06;97757.56;5065768;28;19920;-64
2022/07/26 02:26:56;;;;;;;;;;;;;;;23.21;49.97;97741.28;5073338;28;20272;-64
2022/07/26 02:29:26;;;;;;;;;;;;;;;22.99;50.66;97742.53;5067845;28;19924;-64
2022/07/26 02:31:57;;;;;;;;;;;;;;;22.81;50.90;97745.28;5048950;28;20457;-64
2022/07/26 02:34:24;;;;;;;;;;;;;;;23.06;49.90;97741.72;5068090;28;19920;-65
2022/07/26 02:36:52;;;;;;;;;;;;;;;23.17;49.46;97740.53;5078344;28;20327;-64
2022/07/26 02:39:26;;;;;;;;;;;;;;;22.81;50.49;97739.75;5076957;28;19974;-63
2022/07/26 02:41:55;;;;;;;;;;;;;;;22.99;49.78;97740.53;5075805;28;19920;-64
2022/07/26 02:44:23;;;;;;;;;;;;;;;22.89;49.85;97746.88;5066283;28;19920;-64
2022/07/26 02:46:51;;;;;;;;;;;;;;;23.14;49.24;97748.84;5050700;28;19920;-64
2022/07/26 02:49:24;;;;;;;;;;;;;;;22.89;49.99;97757.16;5073788;28;19920;-63
2022/07/26 02:51:52;;;;;;;;;;;;;;;22.92;50.28;97753.63;5065389;28;20019;-64
2022/07/26 02:54:24;;;;;;;;;;;;;;;22.91;49.88;97752.03;5088982;28;19927;-64
2022/07/26 02:56:52;;;;;;;;;;;;;;;23.10;49.22;97762.69;5070690;28;20011;-64
2022/07/26 02:59:19;;;;;;;;;;;;;;;22.98;49.35;97771.41;5087781;28;19928;-63
2022/07/26 03:01:47;;;;;;;;;;;;;;;23.02;49.70;97771.44;5064538;28;20596;-64
2022/07/26 03:04:16;;;;;;;;;;;;;;;22.91;50.05;97763.91;5078111;28;19971;-64
2022/07/26 03:06:44;;;;;;;;;;;;;;;22.70;50.41;97767.44;5058425;28;20031;-63
2022/07/26 03:09:15;;;;;;;;;;;;;;;22.76;50.19;97773.38;5065180;28;19920;-63
2022/07/26 03:11:45;;;;;;;;;;;;;;;22.79;50.23;97775.34;5081803;28;20008;-64
2022/07/26 03:14:13;;;;;;;;;;;;;;;22.96;49.62;97774.59;5071944;28;19977;-67
2022/07/26 03:16:43;;;;;;;;;;;;;;;22.89;49.51;97774.56;5061950;28;19920;-65
2022/07/26 03:19:11;;;;;;;;;;;;;;;22.85;49.61;97779.31;5060401;28;19967;-65
2022/07/26 03:21:39;;;;;;;5.55;2.10;;;;;;;22.65;49.73;97787.22;5051156;28;20418;-63
2022/07/26 03:24:07;;;;;;;;;;;;;;;22.69;49.63;97784.44;5053847;28;20442;-63
2022/07/26 03:26:40;;;;;;;;;;;;;;;22.48;50.35;97790.75;5068807;28;20430;-64
2022/07/26 03:29:09;;;;;;;;;;;;;;;22.31;50.68;97778.44;5060754;28;19931;-64
2022/07/26 03:31:40;;;;;;;;;;;;;;;22.36;50.36;97785.56;5065977;28;19920;-64
2022/07/26 03:34:33;;;;;;;6.85;2.20;;;;;;;22.34;50.16;97788.75;5085351;28;20417;-64
2022/07/26 03:39:54;;;;;;;;;;;;;;;22.44;49.87;97789.97;5079270;28;19982;-63
2022/07/26 03:42:25;;;;;;;;;;;;;;;22.54;49.25;97786.41;5083440;28;19915;-63
2022/07/26 03:44:55;;;;;;;;;;;;;;;22.32;49.90;97788.34;5056716;28;20356;-63
2022/07/26 03:47:23;;;;;;;;;;;;;;;22.07;50.69;97784.69;5074418;28;20010;-64
2022/07/26 03:49:51;;;;;;;;;;;;;;;22.19;49.75;97792.66;5070654;28;19916;-64
2022/07/26 03:52:19;;;;;;;;;;;;;;;22.39;49.39;97785.59;5051660;28;19946;-65
2022/07/26 03:54:49;;;;;;;;;;;;;;;22.46;49.21;97787.56;5053878;28;19916;-65
2022/07/26 03:57:18;;;;;;;;;;;;;;;22.16;49.97;97787.91;5080465;28;19916;-63
2022/07/26 03:59:46;;;;;;;;;;;;;;;22.29;49.68;97789.13;5079090;28;20011;-64
2022/07/26 04:02:16;;;;;;;;;;;;;;;22.14;49.95;97801.34;5054217;28;19917;-64
2022/07/26 04:04:43;;;;;;;;;;;;;;;22.25;49.67;97799.38;5057437;28;19917;-64
2022/07/26 04:07:11;;;;;;;;;;;;;;;22.06;50.29;97797.72;5056545;28;19920;-63
2022/07/26 04:09:39;;;;;;;;;;;;;;;22.04;50.45;97802.06;5068281;28;20401;-63
2022/07/26 04:12:10;;;;;;;;;;;;;;;22.15;49.99;97798.16;5061914;28;20655;-64
2022/07/26 04:14:41;;;;;;;;;;;;;;;21.91;50.42;97798.84;5084113;28;20002;-66
2022/07/26 04:17:09;;;;;;;;;;;;;;;22.24;49.38;97806.09;5077213;28;19927;-63
2022/07/26 04:19:39;;;;;;;;;;;;;;;22.36;48.79;97808.50;5081327;28;19920;-64
2022/07/26 04:22:06;;;;;;;;;;;;;;;22.23;49.12;97810.06;5070602;28;20021;-63
2022/07/26 04:24:37;;;;;;;;;;;;;;;21.89;50.20;97806.72;5067726;28;19939;-67
2022/07/26 04:27:04;;;;;;;;;;;;;;;;;;5086696;28;19938;-64
2022/07/26 04:29:32;;;;;;;;;;;;;;;22.14;49.01;97809.63;5068569;28;20216;-65
2022/07/26 04:32:00;;;;;;;;;;;;;;;22.30;48.46;97807.31;5081078;28;19923;-64
2022/07/26 04:34:29;;;;;;;;;;;;;;;22.20;49.00;97806.09;5067043;28;19920;-63
2022/07/26 04:36:58;;;;;;;;;;;;;;;21.95;49.52;97806.00;5085134;28;20194;-64
2022/07/26 04:39:28;;;;;;;;;;;;;;;22.08;48.78;97802.88;5083589;28;20304;-63
2022/07/26 04:41:56;;;;;;;;;;;;;;;21.84;49.69;97799.63;5079398;28;19916;-63
2022/07/26 04:44:24;;;;;;;;;;;;;;;22.05;49.09;97803.63;5063581;28;20276;-66
2022/07/26 04:46:54;;;;;;;;;;;;;;;22.19;48.51;97801.75;5068125;28;19970;-66
2022/07/26 04:49:23;;;;;;;;;;;;;;;22.16;48.07;97808.06;5075056;28;19916;-65
2022/07/26 04:51:51;;;;;;;;;;;;;;;22.52;47.09;97812.91;5086134;28;19916;-65
2022/07/26 04:54:25;;;;;;;;;;;;;;;22.19;48.27;97815.59;5084223;28;19916;-65
2022/07/26 04:56:54;;;;;;;;;;;;;;;22.20;48.38;97810.84;5069776;28;19916;-65
2022/07/26 04:59:22;;;;;;;;;;;;;;;22.28;48.31;97818.00;5057949;28;19917;-65
2022/07/26 05:01:50;;;;;;;;;;;;;;;22.26;48.11;97817.56;5085608;28;19916;-65
2022/07/26 05:04:18;;;;;;;;;;;;;;;22.08;48.65;97808.41;5063469;28;19928;-65
2022/07/26 05:06:45;;;;;;;;;;;;;;;22.31;47.64;97814.41;5067611;28;19920;-66
2022/07/26 05:09:13;;;;;;;;;;;;;;;22.29;47.74;97816.81;5056083;28;19920;-65
2022/07/26 05:11:43;;;;;;;;;;;;;;;22.11;48.43;97813.19;5069661;28;19920;-65
2022/07/26 05:14:11;;;;;;;;;;;;;;;22.18;48.32;97814.00;5080287;28;19981;-66
2022/07/26 05:17:04;;;;;;;;;;;;;;;22.08;48.49;97825.00;5055015;28;20303;-65
2022/07/26 05:19:35;;;;;;;;;;;;;;;22.31;48.13;97819.97;5065869;28;19920;-63
2022/07/26 05:22:03;;;;;;;;;;;;;;;22.17;48.23;97819.94;5076039;28;20012;-62
2022/07/26 05:24:31;;;;;;;;;;;;;;;22.34;48.02;97827.50;5070476;28;20011;-66
2022/07/26 05:27:05;;;;;;;;;;;;;;;22.25;47.52;97816.00;5061505;28;19970;-65
2022/07/26 05:29:34;;;;;;;;;;;;;;;22.21;47.83;97820.72;5073228;28;19920;-63
2022/07/26 05:32:02;;;;;;;;;;;;;;;22.14;47.79;97824.25;5080452;28;19916;-63
2022/07/26 05:34:30;;;;;;;;;;;;;;;22.43;47.17;97827.91;5064153;28;19916;-62
2022/07/26 05:36:58;;;;;;;;;;;;;;;22.29;47.83;97819.56;5074550;28;19924;-63
2022/07/26 05:39:28;;;;;;;;;;;;;;;22.32;47.81;97804.97;5081155;28;19939;-63
2022/07/26 05:41:56;;;;;;;;;;;;;;;22.39;47.56;97802.19;5077715;28;19920;-62
2022/07/26 05:44:25;;;;;;;;;;;;;;;22.40;47.53;97803.00;5065774;28;19923;-62
2022/07/26 05:46:56;;;;;;;;;;;;;;;22.40;47.50;97803.00;5075933;28;20384;-62
2022/07/26 05:49:24;;;;;;;;;;;;;;;22.22;48.37;97805.72;5069199;28;19920;-62
2022/07/26 05:51:52;;;;;;;;;;;;;;;22.39;47.68;97804.97;5069113;28;19916;-63
2022/07/26 05:54:24;;;;;;;;;;;;;;;22.65;46.98;97809.38;5089098;28;19916;-64
2022/07/26 05:56:52;;;;;;;;;;;;;;;22.79;46.49;97816.88;5070464;28;19970;-62
2022/07/26 05:59:20;;;;;;;;;;;;;;;22.73;46.45;97810.16;5047906;28;20179;-63
2022/07/26 06:01:55;;;;;;;;;;;;;;;22.61;47.15;97818.84;5067082;28;20659;-63
2022/07/26 06:04:23;;;;;;;;;;;;;;;22.43;48.09;97816.84;5058201;28;19977;-62
2022/07/26 06:06:53;;;;;;;;;;;;;;;22.42;48.29;97820.78;5080084;28;19970;-62
2022/07/26 06:09:22;;;;;;;;;;;;;;;22.42;48.18;97826.31;5061702;28;20370;-63
2022/07/26 06:11:53;;;;;;;;;;;;;;;22.45;48.22;97822.78;5078050;28;20310;-62
2022/07/26 06:14:21;;;;;;;;;;;;;;;22.37;48.52;97818.41;5081418;28;19916;-65
2022/07/26 06:16:54;;;;;;;;;;;;;;;22.63;47.82;97819.25;5069906;28;19929;-64
2022/07/26 06:19:22;;;;;;;;;;;;;;;22.37;48.10;97815.66;5087478;28;19961;-63
2022/07/26 06:21:50;;;;;;;;;;;;;;;22.36;48.22;97819.56;5085348;28;19916;-62
2022/07/26 06:24:18;;;;;;;;;;;;;;;22.48;47.56;97826.75;5082001;28;19916;-63
2022/07/26 06:26:51;;;;;;;;;;;;;;;22.42;47.40;97826.31;5085221;28;19916;-64
2022/07/26 06:29:23;;;;;;;;;;;;;;;22.65;46.36;97819.66;5085118;28;19927;-62
2022/07/26 06:32:03;;;;;;;;;;;;;;;22.33;47.71;97825.13;5057614;28;19939;-63
2022/07/26 06:34:31;;;;;;;;;;;;;;;22.58;46.93;97830.69;5065453;28;19920;-63
2022/07/26 06:36:59;;;;;;;;;;;;;;;22.61;47.10;97829.94;5076338;28;19956;-63
2022/07/26 06:39:27;;;;;;;;;;;;;;;22.48;46.92;97838.63;5065647;28;19970;-63
2022/07/26 06:41:55;;;;;;;;;;;;;;;22.51;47.38;97839.00;5062316;28;20010;-62
2022/07/26 06:44:23;;;;;;;;;;;;;;;22.27;48.58;97835.00;5067941;28;19932;-63
2022/07/26 06:46:50;;;;;;;;;;;;;;;22.26;48.92;97836.94;5063065;28;19942;-63
2022/07/26 06:49:22;;;;;;;;;;;;;;;22.44;49.05;97829.50;5056104;28;19967;-62
2022/07/26 06:51:50;;;;;;;;;;;;;;;22.16;50.72;97832.97;5058725;28;19920;-62
2022/07/26 06:54:18;;;;;;;;;;;;;;;22.23;50.68;97837.75;5063924;28;19916;-62
2022/07/26 06:56:46;;;;;;;;;;;;;;;22.59;49.75;97833.09;5076999;28;19973;-64
2022/07/26 06:59:16;;;;;;;;;;;;;;;22.65;49.17;97830.72;5062364;28;19947;-66
2022/07/26 07:01:44;;;;;;;;;;;;;;;22.57;49.72;97834.66;5060459;28;20015;-62
2022/07/26 07:04:30;;;;;;;;;;;;;;;22.67;49.50;97839.44;5061254;28;20529;-62
2022/07/26 07:07:01;;;;;;;;;;;;;;;22.77;49.01;97835.09;5058861;28;19917;-62
2022/07/26 07:09:31;;;;;;;;;;;;;;;22.86;48.81;97836.28;5058460;28;19966;-62
2022/07/26 07:12:00;;;;;;;;;;;;;;;22.81;48.72;97828.38;5064114;28;19917;-62
2022/07/26 07:14:58;;;;;;;;;;;;;;;22.85;48.51;97818.09;5056056;28;19920;-62
2022/07/26 07:17:27;;;;;;;;;;;;;;;22.84;48.54;97827.56;5058832;28;19940;-62
2022/07/26 07:19:56;;;;;;;;;;;;;;;23.00;48.40;97814.16;5054983;28;19916;-63
2022/07/26 07:22:26;;;;;;;;;;;;;;;23.26;47.36;97812.94;5077283;28;19979;-63
2022/07/26 07:24:54;;;;;;;;;;;;;;;23.24;47.07;97817.31;5057392;28;20338;-63
2022/07/26 07:27:47;;;;;;;;;;;;;;;23.13;47.29;97806.25;5060191;28;20031;-64
2022/07/26 07:30:15;;;;;;;;;;;;;;;23.19;47.99;97812.97;5058235;28;19923;-65
2022/07/26 07:32:45;;;;;;;;;;;;;;;23.48;46.49;97805.38;5062570;28;19924;-66
2022/07/26 07:35:40;;;;;;;;;;;;;;;23.47;47.30;97806.59;5056658;28;19924;-65
2022/07/26 07:38:08;;;;;;;;;;;;;;;23.93;45.35;97813.22;5057000;28;19985;-65
2022/07/26 07:40:36;;;;;;;;;;;;;;;23.80;45.13;97804.53;5057364;28;19920;-65
2022/07/26 07:43:04;;;;;;;;;;;;;;;23.85;44.68;97808.88;5058465;28;19959;-65
2022/07/26 07:45:32;;;;;;;;;;;;;;;23.97;43.10;97798.16;5058593;28;20456;-65
2022/07/26 07:47:59;;;;;;;;;;;;;;;23.90;42.95;97798.16;5057617;28;19917;-65
2022/07/26 07:50:27;;;;;;;;;;;;;;;23.91;42.85;97799.75;5059213;28;20312;-65
2022/07/26 07:52:57;;;;;;;4.93;2.00;;;;;;;23.99;42.94;97809.63;5057967;28;20006;-66
2022/07/26 07:55:30;;;;;;;;;;;;;;;23.92;43.07;97801.34;5065034;28;20871;-67
2022/07/26 07:58:10;;;;;;;;;;;;;;;24.00;42.41;97797.34;5051059;28;19916;-62
2022/07/26 08:00:38;;;;;;;;;;;;;;;23.86;43.11;97789.06;5059700;28;19947;-63
2022/07/26 08:03:06;;;;;;;;;;;;;;;24.17;43.10;97783.78;5055142;28;20372;-62
2022/07/26 08:05:34;;;;;;;;;;;;;;;24.03;42.97;97799.31;5066240;28;19916;-62
2022/07/26 08:08:05;;;;;;;;;;;;;;;24.05;41.53;97802.47;5061182;28;20294;-61
2022/07/26 08:10:33;;;;;;;;;;;;;;;23.81;40.53;97795.06;5063251;28;20418;-62
2022/07/26 08:13:01;;;;;;;;;;;;;;;23.95;40.47;97783.88;5068002;28;19916;-61
2022/07/26 08:15:31;;;;;;;;;;;;;;;24.09;39.87;97783.03;5069219;28;20383;-61
2022/07/26 08:18:00;;;;;;;;;;;;;;;23.93;40.08;97783.50;5055073;28;19917;-61
2022/07/26 08:20:34;;;;;;;;;;;;;;;23.97;40.24;97787.06;5057294;28;19974;-61
2022/07/26 08:23:04;;;;;;;;;;;;;;;24.01;37.80;97790.59;5060922;28;19924;-62
2022/07/26 08:25:33;;;;;;;;;;;;;;;24.07;38.11;97795.72;5063052;28;19927;-61
2022/07/26 08:31:18;;;;;;;;;;;;;;;24.52;37.23;97783.59;5056953;28;19916;-62
2022/07/26 08:33:47;;;;;;;;;;;;;;;24.70;39.33;97799.34;4982226;28;19918;-64
2022/07/26 08:36:18;;;;;;;6.97;1.63;;;;;;;24.65;40.92;97792.22;4982648;28;20514;-66
2022/07/26 08:38:46;;;;;;;14.45;2.15;;;;;;;24.85;40.30;97803.59;4965909;28;22277;-65
2022/07/26 08:41:17;;;;;;;;;;;;;;;24.77;39.09;97802.09;4976086;28;20545;-54
2022/07/26 08:43:45;;;;;;;;;;;;;;;24.47;39.09;97803.47;4979807;28;19918;-55
2022/07/26 08:46:20;;;;;;;;;;;;;;;23.94;39.70;97798.16;4984107;28;19918;-58
2022/07/26 08:48:52;;;;;;;;;;;;;;;23.60;40.02;97800.63;4980197;28;20428;-67
2022/07/26 08:51:20;;;;;;;;;;;;;;;23.64;40.87;97806.97;4999464;28;19939;-59
2022/07/26 08:53:48;;;;;;;;;;;;;;;23.87;40.04;97809.28;5049890;28;19921;-59
2022/07/26 08:56:17;;;;;;;;;;;;;;;23.89;39.24;97806.91;5062954;28;19939;-63
2022/07/26 08:58:45;;;;;;;;;;;;;;;23.88;39.58;97816.41;5067439;28;19920;-60
2022/07/26 09:01:14;;;;;;;;;;;;;;;23.87;39.47;97810.09;5066941;28;19917;-62
2022/07/26 09:03:42;;;;;;;;;;;;;;;23.82;40.17;97813.28;5059088;28;19929;-63
2022/07/26 09:06:15;;;;;;;;;;;;;;;23.93;40.01;97807.69;5052748;28;20518;-63
2022/07/26 09:08:43;;;;;;;;;;;;;;;23.94;39.62;97812.81;5058860;28;19926;-62
2022/07/26 09:11:31;;;;;;;;;;;;;;;23.89;39.24;97812.44;5053207;28;20604;-62
2022/07/26 09:14:00;;;;;;;;;;;;;;;23.92;39.61;97812.44;5057519;28;19917;-60
2022/07/26 09:16:30;;;;;;;;;;;;;;;24.10;39.49;97819.91;5062173;28;19917;-60
2022/07/26 09:19:14;;;;;;;;;;;;;;;24.15;39.53;97816.72;4990622;28;19925;-60
2022/07/26 09:21:42;;;;;;;;;;;;;;;24.23;39.52;97815.47;5004909;28;19948;-60
2022/07/26 09:24:10;;;;;;;;;;;;;;;24.19;39.14;97806.38;5000786;28;19987;-63
2022/07/26 09:26:40;;;;;;;;;;;;;;;24.12;39.35;97814.72;5002031;28;19929;-62
2022/07/26 09:29:09;;;;;;;;;;;;;;;24.07;39.95;97812.38;5006327;28;19917;-57
2022/07/26 09:31:38;;;;;;;;;;;;;;;24.11;38.88;97819.50;4998538;28;19921;-61
2022/07/26 09:34:07;;;;;;;;;;;;;;;24.18;38.08;97813.09;5006570;28;20016;-62
2022/07/26 09:36:39;;;;;;;;;;;;;;;24.19;38.30;97815.50;5019227;28;19939;-62
2022/07/26 09:39:07;;;;;;;;;;;;;;;24.21;38.32;97823.41;5043614;28;20346;-62
2022/07/26 09:41:36;;;;;;;;;;;;;;;24.31;37.79;97814.25;5046263;28;19924;-61
2022/07/26 09:44:21;;;;;;;;;;;;;;;24.31;38.34;97814.25;5067785;28;20078;-62
2022/07/26 09:46:53;;;;;;;;;;;;;;;24.30;39.10;97816.22;5049099;28;20372;-61
2022/07/26 09:49:24;;;;;;;;;;;;;;;24.32;39.18;97813.03;5058823;28;19987;-62
2022/07/26 09:52:02;;;;;;;;;;;;;;;24.44;38.84;97812.59;5042096;28;20318;-63
2022/07/26 09:54:34;;;;;;;;;;;;;;;24.55;38.33;97820.88;5043545;28;19917;-61
2022/07/26 09:57:02;;;;;;;;;;;;;;;24.65;37.89;97816.44;5048158;28;19952;-62
2022/07/26 09:59:32;;;;;;;;;;;;;;;24.67;38.39;97814.06;5047088;28;19970;-62
2022/07/26 10:02:00;;;;;;;;;;;;;;;24.80;37.43;97818.72;5044758;28;19959;-62
2022/07/26 10:04:28;;;;;;;;;;;;;;;24.83;37.03;97822.69;5041357;28;20272;-61
2022/07/26 10:06:57;;;;;;;;;;;;;;;24.70;38.65;97824.34;5044136;28;20293;-61
2022/07/26 10:09:25;;;;;;;;;;;;;;;24.62;39.16;97833.94;5036572;28;20289;-61
2022/07/26 10:11:55;;;;;;;;;;;;;;;24.47;39.31;97836.00;5047813;28;19974;-60
2022/07/26 10:14:40;;;;;;;;;;;;;;;24.36;39.67;97838.84;5049971;28;19928;-60
2022/07/26 10:17:27;;;;;;;;;;;;;;;24.34;39.66;97837.63;5043345;28;20372;-64
2022/07/26 10:20:00;;;;;;;;;;;;;;;24.31;39.45;97842.00;5044380;28;19917;-62
2022/07/26 10:22:29;;;;;;;;;;;;;;;24.37;39.14;97831.28;5047255;28;20349;-60
2022/07/26 10:25:21;;;;;;;;;;;;;;;24.45;39.31;97832.81;5048898;28;20003;-61
2022/07/26 10:27:50;;;;;;;;;;;;;;;24.71;38.73;97826.72;5045748;28;19917;-61
2022/07/26 10:30:44;;;;;;;;;;;;;;;25.00;37.85;97829.31;5044160;28;19931;-58
2022/07/26 10:33:14;;;;;;;;;;;;;;;25.08;36.90;97828.84;5070677;28;19927;-56
2022/07/26 10:35:42;;;;;;;;;;;;;;;24.98;36.44;97821.38;5068526;28;19936;-62
2022/07/26 10:38:11;;;;;;;;;;;;;;;24.79;36.87;97825.47;5076882;28;19922;-57
2022/07/26 10:40:39;;;;;;;;;;;;;;;24.92;36.85;97834.09;5082949;28;19948;-61
2022/07/26 10:43:10;;;;;;;;;;;;;;;24.85;37.78;97831.38;5069891;28;19916;-60
2022/07/26 10:46:27;;;;;;;;;;;;;;;24.93;35.32;97841.28;5084409;28;19923;-61
2022/07/26 10:48:58;;;;;;;;;;;;;;;24.85;34.56;97828.59;5071261;28;19969;-61
2022/07/26 10:51:27;;;;;;;;;;;;;;;24.91;34.56;97824.19;5082284;28;19936;-61
2022/07/26 10:54:01;;;;;;;;;;;;;;;24.95;34.78;97832.50;5088894;28;20019;-61
2022/07/26 10:56:29;;;;;;;;;;;;;;;25.00;35.03;97821.75;5075081;28;19924;-61
2022/07/26 10:59:00;;;;;;;;;;;;;;;25.28;34.47;97817.97;5056451;28;19916;-61
2022/07/26 11:01:32;;;;;;;;;;;;;;;25.51;33.99;97817.31;5072140;28;20316;-61
2022/07/26 11:04:04;;;;;;;;;;;;;;;25.59;34.06;97820.84;5070251;28;19916;-61
2022/07/26 11:06:35;;;;;;;;;;;;;;;25.55;34.15;97826.44;5082636;28;20006;-62
2022/07/26 11:09:28;;;;;;;;;;;;;;;25.38;33.82;97830.19;5063523;28;20360;-61
2022/07/26 11:11:56;;;;;;;;;;;;;;;25.18;32.55;97834.72;5073551;28;19917;-61
2022/07/26 11:14:24;;;;;;;;;;;;;;;24.97;32.48;97824.53;5067779;28;20034;-60
2022/07/26 11:16:55;;;;;;;;;;;;;;;25.04;32.83;97814.19;5076282;28;20003;-60
2022/07/26 11:19:26;;;;;;;;;;;;;;;25.12;32.70;97814.13;5064456;28;19951;-60
2022/07/26 11:21:54;;;;;;;;;;;;;;;25.20;33.40;97815.66;5065714;28;20343;-57
2022/07/26 11:24:22;;;;;;;;;;;;;;;25.32;32.06;97809.59;5072331;28;20352;-59
2022/07/26 11:26:50;;;;;;;;;;;;;;;25.47;31.68;97813.03;5077157;28;19963;-61
2022/07/26 11:29:25;;;;;;;;;;;;;;;25.54;31.67;97812.94;5084108;28;20026;-62
2022/07/26 11:32:06;;;;;;;;;;;;;;;25.77;30.93;97810.31;5063918;28;19916;-60
2022/07/26 11:34:44;;;;;;;;;;;;;;;25.73;31.07;97811.56;5059361;28;19930;-61
2022/07/26 11:37:15;;;;;;;;;;;;;;;25.74;30.70;97799.22;5080863;28;19920;-53
2022/07/26 11:39:43;;;;;;;;;;;;;;;25.84;30.10;97815.03;5066608;28;19917;-61
2022/07/26 11:42:15;;;;;;;;;;;;;;;25.73;30.66;97817.91;5057131;28;20352;-60
2022/07/26 11:44:43;;;;;;;;;;;;;;;25.52;30.51;97810.59;5068626;28;19920;-55
2022/07/26 11:47:11;;;;;;;;;;;;;;;25.47;30.67;97807.47;5066146;28;19947;-60
2022/07/26 11:49:39;;;;;;;;;;;;;;;25.38;30.76;97809.94;5080312;28;20032;-61
2022/07/26 11:52:30;;;;;;;;;;;;;;;25.30;31.14;97814.75;5078477;28;19959;-60
2022/07/26 11:54:59;;;;;;;;;;;;;;;25.34;31.53;97818.31;5054283;28;19959;-56
2022/07/26 11:57:29;;;;;;;;;;;;;;;25.40;30.99;97821.41;5078007;28;20023;-61
2022/07/26 11:59:57;;;;;;;;;;;;;;;25.37;30.73;97811.94;5054071;28;19978;-62
2022/07/26 12:02:29;;;;;;;;;;;;;;;25.48;29.82;97809.81;5077480;28;19916;-60
2022/07/26 12:05:12;;;;;;;;;;;;;;;25.51;30.04;97806.19;5051746;28;20356;-60
2022/07/26 12:07:57;;;;;;;;;;;;;;;25.62;30.82;97803.34;5078010;28;19921;-54
2022/07/26 12:10:26;;;;;;;;;;;;;;;25.83;30.07;97807.88;5073728;28;19948;-60
2022/07/26 12:13:06;;;;;;;;;;;;;;;25.84;30.13;97820.63;5075297;28;19946;-61
2022/07/26 12:15:43;;;;;;;;;;;;;;;25.92;29.74;97810.16;5070632;28;19991;-58
2022/07/26 12:18:11;;;;;;;;;;;;;;;25.91;30.34;97816.94;5067743;28;19923;-62
2022/07/26 12:20:39;;;;;;;;;;;;;;;25.91;29.52;97806.59;5077685;28;20311;-59
2022/07/26 12:23:08;;;;;;;;;;;;;;;25.86;29.68;97813.41;5067530;28;19923;-61
2022/07/26 12:25:39;;;;;;;;;;;;;;;25.74;29.88;97799.22;5075352;28;20356;-62
2022/07/26 12:28:16;;;;;;;;;;;;;;;25.60;29.79;97797.38;5065006;28;19924;-62
2022/07/26 12:31:21;;;;;;;;;;;;;;;25.61;30.00;97801.72;5076125;28;19946;-60
2022/07/26 12:33:49;;;;;;;;;;;;;;;25.66;29.13;97794.94;5082745;28;20316;-62
2022/07/26 12:36:18;;;;;;;;;;;;;;;25.61;29.01;97802.53;5076784;28;20275;-61
2022/07/26 12:38:57;;;;;;;;;;;;;;;25.52;29.53;97799.47;5068565;28;19927;-61
2022/07/26 12:41:32;;;;;;;;;;;;;;;25.51;29.63;97797.84;5067791;28;19926;-62
2022/07/26 12:44:00;;;;;;;;;;;;;;;25.49;30.28;97799.50;5061695;28;19916;-62
2022/07/26 12:46:31;;;;;;;;;;;;;;;25.74;30.15;97790.88;5075734;28;20265;-60
2022/07/26 12:48:59;;;;;;;;;;;;;;;25.84;29.12;97787.22;5057649;28;19928;-62
2022/07/26 12:51:27;;;;;;;;;;;;;;;25.90;29.32;97787.53;5065800;28;20015;-61
2022/07/26 12:53:57;;;;;;;;;;;;;;;26.03;28.94;97788.56;5079932;28;19920;-62
2022/07/26 12:56:25;;;;;;;;;;;;;;;26.10;29.17;97792.06;5074817;28;19916;-61
2022/07/26 12:58:59;;;;;;;;;;;;;;;26.07;28.60;97798.44;5055741;28;19939;-59
2022/07/26 13:01:30;;;;;;;;;;;;;;;25.97;28.25;97793.81;5084220;28;20303;-60
2022/07/26 13:03:58;;;;;;;;;;;;;;;26.00;28.16;97783.84;5058242;28;19966;-56
2022/07/26 13:06:26;;;;;;;;;;;;;;;26.07;28.10;97783.75;5090239;28;19922;-55
2022/07/26 13:08:55;;;;;;;;;;;;;;;26.13;27.91;97796.78;5083021;28;19970;-61
2022/07/26 13:11:25;;;;;;;;;;;;;;;26.19;27.77;97785.97;5087603;28;19958;-61
2022/07/26 13:13:54;;;;;;;;;;;;;;;26.25;28.42;97795.41;5085963;28;19948;-62
2022/07/26 13:16:22;;;;;;;;;;;;;;;26.16;29.28;97783.25;5086735;28;19920;-57
2022/07/26 13:18:50;;;;;;;;;;;;;;;26.22;29.46;97795.50;5081150;28;19952;-62
2022/07/26 13:21:21;;;;;;;;;;;;;;;26.41;29.63;97792.03;5085915;28;20343;-61
2022/07/26 13:23:48;;;;;;;;;;;;;;;26.18;29.84;97795.53;5062128;28;19959;-61
2022/07/26 13:26:19;;;;;;;;;;;;;;;26.03;30.00;97794.13;5077048;28;19915;-60
2022/07/26 13:28:49;;;;;;;;;;;;;;;25.92;30.23;97788.69;5087736;28;19916;-62